createdAt,value
2022-12-31T00:00:27.202Z,30.80
2022-12-31T00:05:50.578Z,31.50
2022-12-31T00:10:53.691Z,29.40
2022-12-31T00:16:12.195Z,30.40
2022-12-31T00:21:17.116Z,29.20
2022-12-31T00:26:24.910Z,31.40
2022-12-31T00:31:30.622Z,30.50
2022-12-31T00:36:39.255Z,31.80
2022-12-31T00:41:44.262Z,28.70
2022-12-31T00:46:48.499Z,28.40
2022-12-31T00:51:51.600Z,27.30
2022-12-31T00:56:54.678Z,28.60
2022-12-31T01:01:57.829Z,28.50
2022-12-31T01:07:00.989Z,28.00
2022-12-31T01:12:04.398Z,26.10
2022-12-31T01:17:08.171Z,24.70
2022-12-31T01:22:11.297Z,24.60
2022-12-31T01:27:14.616Z,26.70
2022-12-31T01:32:18.244Z,26.50
2022-12-31T01:37:21.379Z,25.10
2022-12-31T01:42:24.464Z,24.10
2022-12-31T01:47:42.605Z,25.30
2022-12-31T01:52:50.080Z,24.90
2022-12-31T01:57:58.556Z,24.50
2022-12-31T02:03:02.686Z,24.40
2022-12-31T02:08:06.928Z,23.80
2022-12-31T02:13:10.329Z,23.10
2022-12-31T02:18:46.038Z,22.70
2022-12-31T02:24:10.156Z,22.30
2022-12-31T02:29:48.725Z,21.10
2022-12-31T02:34:59.082Z,20.40
2022-12-31T02:40:04.108Z,21.10
2022-12-31T02:45:08.245Z,20.20
2022-12-31T02:50:31.878Z,18.80
2022-12-31T02:55:58.081Z,18.40
2022-12-31T03:01:19.989Z,19.10
2022-12-31T03:06:23.292Z,19.30
2022-12-31T03:11:45.037Z,17.70
2022-12-31T03:16:49.233Z,17.20
2022-12-31T03:22:10.788Z,17.30
2022-12-31T03:27:13.925Z,16.60
2022-12-31T03:32:17.059Z,16.60
2022-12-31T03:37:20.255Z,15.80
2022-12-31T03:42:23.426Z,16.90
2022-12-31T03:47:26.645Z,16.80
2022-12-31T03:52:29.771Z,15.20
2022-12-31T03:57:33.663Z,14.30
2022-12-31T04:02:37.288Z,13.90
2022-12-31T04:07:41.766Z,13.10
2022-12-31T04:12:45.412Z,15.40
2022-12-31T04:17:49.241Z,13.90
2022-12-31T04:22:52.399Z,16.30
2022-12-31T04:27:55.487Z,17.40
2022-12-31T04:32:58.602Z,16.90
2022-12-31T04:38:01.731Z,16.90
2022-12-31T04:43:04.795Z,15.20
2022-12-31T04:48:07.863Z,14.80
2022-12-31T04:53:10.942Z,14.00
2022-12-31T04:58:14.046Z,14.10
2022-12-31T05:03:18.562Z,16.20
2022-12-31T05:08:21.967Z,14.80
2022-12-31T05:13:29.499Z,15.20
2022-12-31T05:18:37.023Z,14.90
2022-12-31T05:23:40.196Z,14.80
2022-12-31T05:28:43.359Z,16.10
2022-12-31T05:33:46.513Z,16.60
2022-12-31T05:38:49.602Z,16.10
2022-12-31T05:43:52.671Z,16.10
2022-12-31T05:48:55.780Z,14.70
2022-12-31T05:53:58.986Z,14.80
2022-12-31T05:59:02.129Z,14.20
2022-12-31T06:04:06.185Z,13.50
2022-12-31T06:09:09.505Z,14.40
2022-12-31T06:14:13.014Z,14.50
2022-12-31T06:19:16.186Z,14.60
2022-12-31T06:24:19.379Z,14.30
2022-12-31T06:29:22.474Z,13.00
2022-12-31T06:34:25.648Z,14.40
2022-12-31T06:39:28.912Z,13.30
2022-12-31T06:44:32.039Z,13.40
2022-12-31T06:49:35.157Z,12.90
2022-12-31T06:54:38.747Z,11.90
2022-12-31T06:59:42.269Z,11.10
2022-12-31T07:05:10.449Z,11.00
2022-12-31T07:10:30.091Z,11.70
2022-12-31T07:15:59.110Z,12.20
2022-12-31T07:21:02.847Z,10.90
2022-12-31T07:26:35.735Z,11.40
2022-12-31T07:32:08.065Z,10.80
2022-12-31T07:37:36.437Z,10.90
2022-12-31T07:42:57.137Z,10.80
2022-12-31T07:48:02.838Z,11.40
2022-12-31T07:53:06.492Z,10.20
2022-12-31T07:58:22.416Z,9.80
2022-12-31T08:03:40.796Z,9.20
2022-12-31T08:08:49.873Z,9.70
2022-12-31T08:13:56.410Z,10.60
2022-12-31T08:18:59.785Z,10.20
2022-12-31T08:24:21.962Z,9.50
2022-12-31T08:29:53.189Z,9.60
2022-12-31T08:35:15.503Z,9.30
2022-12-31T08:40:50.436Z,9.10
2022-12-31T08:45:58.073Z,8.40
2022-12-31T08:51:01.492Z,9.30
2022-12-31T08:56:15.483Z,7.90
2022-12-31T09:01:24.791Z,7.30
2022-12-31T09:06:38.234Z,8.00
2022-12-31T09:12:06.266Z,8.00
2022-12-31T09:17:33.896Z,7.40
2022-12-31T09:22:38.728Z,7.00
2022-12-31T09:28:11.666Z,6.60
2022-12-31T09:33:36.726Z,7.70
2022-12-31T09:38:39.785Z,7.70
2022-12-31T09:43:48.843Z,7.70
2022-12-31T09:49:01.231Z,6.60
2022-12-31T09:54:04.323Z,6.70
2022-12-31T09:59:17.980Z,7.00
2022-12-31T10:04:48.303Z,7.40
2022-12-31T10:10:12.996Z,6.30
2022-12-31T10:15:49.796Z,6.60
2022-12-31T10:21:11.723Z,6.20
2022-12-31T10:26:33.652Z,6.30
2022-12-31T10:32:31.682Z,6.20
2022-12-31T10:37:56.673Z,5.90
2022-12-31T10:43:34.178Z,5.60
2022-12-31T10:48:54.979Z,5.20
2022-12-31T10:54:07.332Z,5.50
2022-12-31T11:05:49.090Z,6.00
2022-12-31T11:11:23.823Z,5.60
2022-12-31T11:17:03.580Z,5.50
2022-12-31T11:22:33.723Z,5.60
2022-12-31T11:27:49.620Z,6.10
2022-12-31T11:33:20.585Z,6.00
2022-12-31T11:38:23.687Z,5.10
2022-12-31T11:43:54.707Z,5.10
2022-12-31T11:49:00.607Z,5.10
2022-12-31T11:54:26.020Z,5.00
2022-12-31T11:59:38.411Z,5.20
2022-12-31T12:04:41.824Z,4.80
2022-12-31T12:09:49.221Z,4.80
2022-12-31T12:14:55.035Z,5.10
2022-12-31T12:20:15.286Z,5.00
2022-12-31T12:25:22.504Z,5.70
2022-12-31T12:30:28.230Z,4.90
2022-12-31T12:35:34.175Z,4.80
2022-12-31T12:40:59.041Z,5.30
2022-12-31T12:46:42.593Z,5.30
2022-12-31T12:52:16.987Z,4.90
2022-12-31T12:57:47.666Z,4.50
2022-12-31T13:03:02.178Z,4.90
2022-12-31T13:08:15.127Z,5.30
2022-12-31T13:13:47.692Z,5.00
2022-12-31T13:19:04.734Z,4.80
2022-12-31T13:24:32.837Z,5.30
2022-12-31T13:29:49.120Z,5.20
2022-12-31T13:35:10.893Z,5.00
2022-12-31T13:41:23.993Z,5.40
2022-12-31T13:47:04.807Z,6.10
2022-12-31T13:52:35.330Z,5.50
2022-12-31T13:58:11.639Z,5.10
2022-12-31T14:03:31.654Z,5.30
2022-12-31T14:09:02.431Z,5.60
2022-12-31T14:14:42.419Z,5.30
2022-12-31T14:20:06.369Z,5.00
2022-12-31T14:26:01.757Z,4.80
2022-12-31T14:31:20.159Z,5.30
2022-12-31T14:37:04.557Z,5.40
2022-12-31T14:42:34.938Z,4.90
2022-12-31T14:47:55.734Z,4.70
2022-12-31T14:53:33.671Z,5.30
2022-12-31T14:58:39.652Z,5.00
2022-12-31T15:03:45.994Z,5.30
2022-12-31T15:09:08.800Z,4.80
2022-12-31T15:14:36.899Z,5.30
2022-12-31T15:19:50.043Z,5.30
2022-12-31T15:32:26.142Z,5.60
2022-12-31T15:38:18.817Z,5.10
2022-12-31T15:43:25.228Z,4.90
2022-12-31T15:48:52.094Z,5.20
2022-12-31T15:53:58.320Z,4.90
2022-12-31T15:59:06.689Z,5.20
2022-12-31T16:04:42.826Z,5.20
2022-12-31T16:09:59.172Z,4.80
2022-12-31T16:15:03.355Z,4.80
2022-12-31T16:20:30.426Z,4.60
2022-12-31T16:25:34.119Z,4.50
2022-12-31T16:30:37.561Z,4.50
2022-12-31T16:35:41.096Z,5.00
2022-12-31T16:41:04.204Z,4.70
2022-12-31T16:51:21.346Z,4.30
2022-12-31T16:56:36.699Z,4.90
2022-12-31T17:01:40.042Z,4.30
2022-12-31T17:06:44.248Z,4.30
2022-12-31T17:11:56.476Z,4.00
2022-12-31T17:17:08.814Z,4.50
2022-12-31T17:22:34.236Z,4.60
2022-12-31T17:27:39.838Z,4.50
2022-12-31T17:32:45.534Z,4.60
2022-12-31T17:37:48.713Z,4.50
2022-12-31T17:42:52.063Z,4.70
2022-12-31T17:47:59.936Z,4.50
2022-12-31T17:53:11.225Z,5.40
2022-12-31T17:58:23.556Z,4.70
2022-12-31T18:03:30.972Z,4.80
2022-12-31T18:08:34.183Z,5.10
2022-12-31T18:13:37.399Z,4.90
2022-12-31T18:18:42.147Z,4.40
2022-12-31T18:23:47.992Z,4.60
2022-12-31T18:28:51.598Z,4.70
2022-12-31T18:33:57.112Z,4.70
2022-12-31T18:39:00.393Z,4.50
2022-12-31T18:44:03.743Z,4.20
2022-12-31T18:49:06.872Z,4.70
2022-12-31T18:54:12.330Z,4.20
2022-12-31T18:59:15.556Z,4.80
2022-12-31T19:04:27.092Z,4.40
2022-12-31T19:09:45.199Z,4.40
2022-12-31T19:14:49.470Z,4.70
2022-12-31T19:19:52.561Z,4.80
2022-12-31T19:24:55.692Z,5.00
2022-12-31T19:30:00.759Z,4.70
2022-12-31T19:35:04.290Z,4.60
2022-12-31T19:40:13.061Z,4.50
2022-12-31T19:45:21.595Z,4.50
2022-12-31T19:50:27.479Z,5.30
2022-12-31T19:55:33.066Z,5.20
2022-12-31T20:00:36.304Z,4.90
2022-12-31T20:05:39.529Z,5.20
2022-12-31T20:10:43.875Z,5.40
2022-12-31T20:15:48.006Z,5.40
2022-12-31T20:20:55.804Z,4.90
2022-12-31T20:26:00.488Z,4.80
2022-12-31T20:31:12.440Z,5.30
2022-12-31T20:36:17.759Z,6.90
2022-12-31T20:41:23.320Z,6.40
2022-12-31T20:46:29.890Z,4.90
2022-12-31T20:51:35.093Z,4.90
2022-12-31T20:56:41.319Z,5.70
2022-12-31T21:02:19.284Z,5.40
2022-12-31T21:07:07.962Z,5.90
2022-12-31T21:12:30.449Z,5.30
2022-12-31T21:17:33.617Z,5.50
2022-12-31T21:22:36.815Z,5.50
2022-12-31T21:27:40.037Z,5.90
2022-12-31T21:32:43.193Z,5.40
2022-12-31T21:37:58.424Z,5.50
2022-12-31T21:43:03.931Z,4.90
2022-12-31T21:48:20.546Z,5.00
2022-12-31T21:53:29.207Z,5.20
2022-12-31T21:58:36.758Z,5.20
2022-12-31T22:03:39.988Z,5.30
2022-12-31T22:08:44.864Z,5.10
2022-12-31T22:13:49.918Z,4.70
2022-12-31T22:18:55.762Z,5.10
2022-12-31T22:23:59.108Z,5.30
2022-12-31T22:29:02.271Z,4.70
2022-12-31T22:34:05.469Z,4.50
2022-12-31T22:39:44.732Z,3.90
2022-12-31T22:44:38.597Z,4.80
2022-12-31T22:49:41.727Z,4.60
2022-12-31T22:54:44.809Z,4.80
2022-12-31T22:59:47.978Z,4.40
2022-12-31T23:04:51.131Z,6.10
2022-12-31T23:10:12.884Z,6.60
2022-12-31T23:15:34.704Z,7.50
2022-12-31T23:20:57.173Z,7.70
2022-12-31T23:26:02.167Z,6.80
2022-12-31T23:31:06.840Z,8.00
2022-12-31T23:36:10.222Z,6.20
2022-12-31T23:41:15.754Z,6.60
2022-12-31T23:46:19.000Z,6.70
2022-12-31T23:51:22.384Z,6.20
2022-12-31T23:56:25.485Z,6.50
